Time;durP1;ratioP1;P1;durP2;ratioP2;P2;SDS_P1;SDS_P2;PMS_P1;PMS_P2;Temp;Humidity;BMP_temperature;BMP_pressure;BME280_temperature;BME280_humidity;BME280_pressure;Samples;Min_cycle;Max_cycle;Signal;HPM_P1;HPM_P2
2021/10/23 00:00:57;;;;;;;7.25;4.30;;;;;;;;;;5022131;28;20201;-76
2021/10/23 00:03:23;;;;;;;3.90;3.50;;;;;;;;;;5018975;28;20182;-75
2021/10/23 00:05:49;;;;;;;6.50;4.03;;;;;;;;;;5027261;28;20175;-76
2021/10/23 00:08:15;;;;;;;5.47;3.87;;;;;;;;;;5018492;28;20175;-76
2021/10/23 00:10:41;;;;;;;9.27;4.20;;;;;;;;;;5016128;28;20943;-76
2021/10/23 00:13:07;;;;;;;6.68;3.95;;;;;;;;;;5019086;28;20201;-76
2021/10/23 00:15:34;;;;;;;4.75;3.72;;;;;;;;;;5018505;28;20194;-77
2021/10/23 00:18:00;;;;;;;8.57;4.18;;;;;;;;;;5017619;28;20205;-75
2021/10/23 00:20:26;;;;;;;7.07;4.85;;;;;;;;;;5016542;28;20199;-75
2021/10/23 00:22:52;;;;;;;6.63;3.97;;;;;;;;;;5017365;28;20209;-75
2021/10/23 00:25:21;;;;;;;7.28;4.07;;;;;;;;;;5021354;28;20448;-76
2021/10/23 00:27:47;;;;;;;7.70;3.90;;;;;;;;;;5022493;28;20282;-76
2021/10/23 00:30:14;;;;;;;8.05;4.47;;;;;;;;;;5021237;28;20205;-76
2021/10/23 00:32:40;;;;;;;6.43;4.15;;;;;;;;;;5018379;28;20197;-76
2021/10/23 00:35:07;;;;;;;6.30;3.53;;;;;;;;;;5017706;28;20197;-76
2021/10/23 00:37:33;;;;;;;6.00;3.83;;;;;;;;;;5018499;28;20185;-76
2021/10/23 00:39:59;;;;;;;7.05;4.30;;;;;;;;;;5020782;28;20210;-76
2021/10/23 00:42:25;;;;;;;7.75;3.65;;;;;;;;;;5017197;28;20251;-76
2021/10/23 00:44:51;;;;;;;3.85;3.33;;;;;;;;;;5016726;28;20238;-75
2021/10/23 00:47:19;;;;;;;5.78;3.30;;;;;;;;;;5032475;28;20171;-76
2021/10/23 00:49:46;;;;;;;5.82;4.07;;;;;;;;;;5023342;28;20285;-76
2021/10/23 00:52:13;;;;;;;6.38;2.90;;;;;;;;;;5025666;28;20182;-76
2021/10/23 00:54:39;;;;;;;7.68;3.63;;;;;;;;;;5026038;28;20182;-76
2021/10/23 00:57:06;;;;;;;8.45;3.92;;;;;;;;;;5030258;28;20201;-76
2021/10/23 00:59:33;;;;;;;11.35;3.80;;;;;;;;;;5022307;28;20207;-76
2021/10/23 01:01:59;;;;;;;7.82;3.60;;;;;;;;;;5015559;28;20203;-76
2021/10/23 01:04:25;;;;;;;9.27;4.15;;;;;;;;;;5014592;28;20572;-76
2021/10/23 01:06:51;;;;;;;7.22;3.47;;;;;;;;;;5023111;28;20217;-76
2021/10/23 01:09:19;;;;;;;7.07;3.67;;;;;;;;;;5019847;28;20252;-76
2021/10/23 01:11:45;;;;;;;5.60;3.47;;;;;;;;;;5026424;28;20411;-76
2021/10/23 01:14:16;;;;;;;4.68;2.88;;;;;;;;;;5015699;28;20185;-76
2021/10/23 01:16:42;;;;;;;6.53;2.90;;;;;;;;;;5027138;28;20662;-76
2021/10/23 01:19:09;;;;;;;5.95;3.08;;;;;;;;;;5024299;28;20229;-76
2021/10/23 01:21:36;;;;;;;7.40;3.50;;;;;;;;;;5023532;28;20191;-76
2021/10/23 01:24:04;;;;;;;3.85;2.80;;;;;;;;;;5023933;28;20174;-76
2021/10/23 01:26:30;;;;;;;4.63;3.25;;;;;;;;;;5025493;28;20167;-76
2021/10/23 01:28:56;;;;;;;4.72;3.22;;;;;;;;;;5024162;28;20264;-76
2021/10/23 01:31:22;;;;;;;4.20;3.20;;;;;;;;;;5025927;28;20240;-76
2021/10/23 01:33:48;;;;;;;5.88;2.95;;;;;;;;;;5025036;28;20186;-76
2021/10/23 01:36:18;;;;;;;5.45;2.95;;;;;;;;;;5026091;28;20213;-76
2021/10/23 01:38:44;;;;;;;3.17;2.72;;;;;;;;;;5022917;28;20213;-76
2021/10/23 01:41:11;;;;;;;5.40;3.72;;;;;;;;;;5024267;28;20216;-76
2021/10/23 01:43:37;;;;;;;6.57;3.55;;;;;;;;;;5019416;28;20183;-76
2021/10/23 01:46:04;;;;;;;5.05;3.35;;;;;;;;;;5023005;28;20282;-76
2021/10/23 01:48:30;;;;;;;7.80;3.50;;;;;;;;;;5023542;28;20182;-76
2021/10/23 01:50:56;;;;;;;10.32;3.72;;;;;;;;;;5020452;28;20182;-76
2021/10/23 01:53:22;;;;;;;7.22;3.40;;;;;;;;;;5020570;28;20170;-76
2021/10/23 01:55:48;;;;;;;4.47;3.20;;;;;;;;;;5023162;28;20218;-76
2021/10/23 01:58:14;;;;;;;3.00;2.70;;;;;;;;;;5024288;28;20206;-76
2021/10/23 02:00:40;;;;;;;6.32;3.35;;;;;;;;;;5023632;28;20233;-76
2021/10/23 02:03:06;;;;;;;6.65;3.50;;;;;;;;;;5028990;28;20183;-76
2021/10/23 02:05:32;;;;;;;6.82;3.42;;;;;;;;;;5021054;28;20171;-76
2021/10/23 02:07:58;;;;;;;3.25;2.92;;;;;;;;;;5018926;28;20237;-77
2021/10/23 02:10:24;;;;;;;5.68;3.65;;;;;;;;;;5018348;28;20505;-76
2021/10/23 02:12:50;;;;;;;4.80;2.50;;;;;;;;;;5024018;28;20205;-76
2021/10/23 02:15:16;;;;;;;4.05;3.15;;;;;;;;;;5015799;28;20199;-76
2021/10/23 02:17:42;;;;;;;5.25;3.83;;;;;;;;;;5016407;28;20178;-76
2021/10/23 02:20:09;;;;;;;4.50;4.10;;;;;;;;;;5024750;28;20201;-76
2021/10/23 02:22:36;;;;;;;4.20;3.70;;;;;;;;;;5018970;28;20224;-76
2021/10/23 02:25:02;;;;;;;4.85;2.92;;;;;;;;;;5024389;28;20187;-76
2021/10/23 02:27:28;;;;;;;5.50;3.35;;;;;;;;;;5021680;28;20241;-75
2021/10/23 02:29:54;;;;;;;3.30;3.00;;;;;;;;;;5018555;28;20201;-76
2021/10/23 02:32:20;;;;;;;3.35;3.05;;;;;;;;;;5019631;28;20178;-76
2021/10/23 02:34:46;;;;;;;4.55;3.63;;;;;;;;;;5023151;28;20186;-76
2021/10/23 02:37:12;;;;;;;7.15;3.53;;;;;;;;;;5020983;28;20183;-76
2021/10/23 02:39:38;;;;;;;4.35;3.42;;;;;;;;;;5021944;28;20210;-76
2021/10/23 02:42:04;;;;;;;4.20;3.45;;;;;;;;;;5028192;28;20582;-76
2021/10/23 02:44:30;;;;;;;4.85;3.15;;;;;;;;;;5018665;28;20218;-76
2021/10/23 02:46:56;;;;;;;3.90;2.80;;;;;;;;;;5019124;28;20182;-76
2021/10/23 02:49:22;;;;;;;4.53;2.97;;;;;;;;;;5023816;28;20190;-75
2021/10/23 02:51:48;;;;;;;4.68;2.97;;;;;;;;;;5023769;28;20186;-76
2021/10/23 02:54:15;;;;;;;7.03;3.38;;;;;;;;;;5015096;28;20190;-76
2021/10/23 02:56:41;;;;;;;4.30;3.22;;;;;;;;;;5016313;28;20184;-76
2021/10/23 02:59:07;;;;;;;10.27;3.03;;;;;;;;;;5018148;28;20695;-76
2021/10/23 03:01:33;;;;;;;4.68;2.97;;;;;;;;;;5018703;28;20197;-75
2021/10/23 03:03:59;;;;;;;2.95;2.75;;;;;;;;;;5022250;28;20584;-75
2021/10/23 03:06:25;;;;;;;4.50;2.92;;;;;;;;;;5018925;28;20197;-76
2021/10/23 03:08:51;;;;;;;7.18;3.70;;;;;;;;;;5018473;28;20209;-76
2021/10/23 03:11:17;;;;;;;6.43;3.25;;;;;;;;;;5018300;28;20182;-76
2021/10/23 03:13:43;;;;;;;4.93;2.72;;;;;;;;;;5017411;28;20191;-76
2021/10/23 03:16:10;;;;;;;6.97;3.17;;;;;;;;;;5020583;28;20199;-76
2021/10/23 03:18:36;;;;;;;5.75;3.15;;;;;;;;;;5020338;28;20182;-76
2021/10/23 03:21:02;;;;;;;4.00;2.80;;;;;;;;;;5016116;28;20209;-76
2021/10/23 03:23:28;;;;;;;4.75;3.15;;;;;;;;;;5018466;28;20241;-76
2021/10/23 03:25:55;;;;;;;4.40;2.67;;;;;;;;;;5015928;28;20635;-76
2021/10/23 03:28:21;;;;;;;7.53;2.90;;;;;;;;;;5018191;28;20179;-76
2021/10/23 03:30:47;;;;;;;7.80;3.92;;;;;;;;;;5022174;28;20301;-76
2021/10/23 03:33:13;;;;;;;7.10;3.03;;;;;;;;;;5018380;28;20189;-76
2021/10/23 03:35:39;;;;;;;5.40;3.05;;;;;;;;;;5018419;28;20257;-76
2021/10/23 03:38:05;;;;;;;3.30;3.00;;;;;;;;;;5017133;28;20601;-76
2021/10/23 03:40:31;;;;;;;5.97;3.63;;;;;;;;;;5017288;28;20206;-76
2021/10/23 03:42:57;;;;;;;6.25;3.53;;;;;;;;;;5021796;28;20250;-76
2021/10/23 03:45:23;;;;;;;4.85;3.00;;;;;;;;;;5017315;28;20218;-77
2021/10/23 03:47:49;;;;;;;6.03;3.70;;;;;;;;;;5018451;28;20258;-77
2021/10/23 03:50:15;;;;;;;3.70;3.15;;;;;;;;;;5020308;28;20217;-76
2021/10/23 03:52:41;;;;;;;7.43;3.35;;;;;;;;;;5021532;28;20194;-76
2021/10/23 03:55:10;;;;;;;6.10;3.33;;;;;;;;;;5024010;28;20279;-76
2021/10/23 03:57:36;;;;;;;4.07;3.17;;;;;;;;;;5021685;28;20202;-76
2021/10/23 04:00:04;;;;;;;3.30;3.00;;;;;;;;;;5016906;28;20202;-76
2021/10/23 04:02:30;;;;;;;4.10;3.20;;;;;;;;;;5018786;28;20163;-76
2021/10/23 04:04:56;;;;;;;5.80;3.42;;;;;;;;;;5012550;28;20197;-76
2021/10/23 04:07:22;;;;;;;6.87;3.10;;;;;;;;;;5017787;28;20179;-76
2021/10/23 04:09:48;;;;;;;4.47;2.97;;;;;;;;;;5021997;28;21055;-77
2021/10/23 04:12:14;;;;;;;4.63;2.90;;;;;;;;;;5016610;28;20290;-76
2021/10/23 04:14:40;;;;;;;5.90;3.20;;;;;;;;;;5018461;28;20417;-77
2021/10/23 04:17:06;;;;;;;2.80;2.60;;;;;;;;;;5017266;28;20232;-77
2021/10/23 04:19:32;;;;;;;7.73;3.50;;;;;;;;;;5016923;28;20279;-76
2021/10/23 04:21:58;;;;;;;3.10;2.80;;;;;;;;;;5020756;28;20440;-76
2021/10/23 04:24:24;;;;;;;7.32;3.78;;;;;;;;;;5022347;28;20193;-76
2021/10/23 04:26:52;;;;;;;6.05;3.05;;;;;;;;;;5028795;28;20175;-76
2021/10/23 04:29:18;;;;;;;3.47;3.17;;;;;;;;;;5020789;28;20194;-76
2021/10/23 04:31:44;;;;;;;3.83;3.00;;;;;;;;;;5023041;28;20182;-76
2021/10/23 04:34:10;;;;;;;5.57;2.60;;;;;;;;;;5024023;28;20637;-76
2021/10/23 04:36:36;;;;;;;4.20;2.90;;;;;;;;;;5025530;28;20257;-76
2021/10/23 04:39:02;;;;;;;7.00;3.42;;;;;;;;;;5026121;28;20464;-76
2021/10/23 04:41:28;;;;;;;5.40;3.25;;;;;;;;;;5017902;28;20207;-76
2021/10/23 04:43:54;;;;;;;4.80;3.60;;;;;;;;;;5023717;28;20182;-76
2021/10/23 04:46:20;;;;;;;7.35;3.28;;;;;;;;;;5020914;28;20462;-76
2021/10/23 04:48:46;;;;;;;6.73;3.27;;;;;;;;;;5021817;28;20218;-77
2021/10/23 04:51:12;;;;;;;3.17;2.90;;;;;;;;;;5024332;28;20486;-76
2021/10/23 04:53:38;;;;;;;4.22;3.30;;;;;;;;;;5024990;28;20230;-76
2021/10/23 04:56:04;;;;;;;3.80;2.95;;;;;;;;;;5023973;28;20182;-76
2021/10/23 04:58:30;;;;;;;4.32;2.92;;;;;;;;;;5020262;28;20253;-76
2021/10/23 05:00:59;;;;;;;5.95;2.90;;;;;;;;;;5022825;28;20229;-76
2021/10/23 05:03:25;;;;;;;4.63;3.30;;;;;;;;;;5023258;28;20186;-76
2021/10/23 05:05:51;;;;;;;4.55;3.08;;;;;;;;;;5021415;28;20174;-76
2021/10/23 05:08:17;;;;;;;13.70;3.50;;;;;;;;;;5023313;28;20721;-76
2021/10/23 05:10:43;;;;;;;6.38;3.08;;;;;;;;;;5018204;28;20449;-77
2021/10/23 05:13:10;;;;;;;4.30;2.95;;;;;;;;;;5014800;28;20265;-76
2021/10/23 05:15:36;;;;;;;5.28;2.92;;;;;;;;;;5022714;28;20256;-76
2021/10/23 05:18:02;;;;;;;3.72;3.28;;;;;;;;;;5019700;28;20194;-76
2021/10/23 05:20:28;;;;;;;5.30;2.97;;;;;;;;;;5012747;28;20595;-76
2021/10/23 05:22:54;;;;;;;2.80;2.45;;;;;;;;;;5015264;28;20186;-76
2021/10/23 05:25:20;;;;;;;6.22;3.15;;;;;;;;;;5012561;28;20179;-76
2021/10/23 05:27:46;;;;;;;4.53;2.95;;;;;;;;;;5024331;28;20194;-76
2021/10/23 05:30:12;;;;;;;9.52;3.70;;;;;;;;;;5013348;28;20201;-76
2021/10/23 05:32:38;;;;;;;3.55;2.85;;;;;;;;;;5032577;28;20174;-76
2021/10/23 05:35:04;;;;;;;5.30;2.78;;;;;;;;;;5020006;28;20186;-76
2021/10/23 05:37:30;;;;;;;4.30;2.90;;;;;;;;;;5018537;28;20222;-76
2021/10/23 05:39:56;;;;;;;7.93;3.40;;;;;;;;;;5023186;28;20225;-76
2021/10/23 05:42:22;;;;;;;5.97;3.63;;;;;;;;;;5018911;28;20206;-76
2021/10/23 05:44:49;;;;;;;3.20;2.40;;;;;;;;;;5016505;28;20754;-76
2021/10/23 05:47:15;;;;;;;3.25;2.60;;;;;;;;;;5014303;28;20418;-76
2021/10/23 05:49:41;;;;;;;5.20;2.88;;;;;;;;;;5016279;28;20186;-76
2021/10/23 05:52:07;;;;;;;4.70;3.30;;;;;;;;;;5017899;28;20261;-76
2021/10/23 05:54:37;;;;;;;4.72;3.60;;;;;;;;;;5020627;28;20290;-76
2021/10/23 05:57:05;;;;;;;4.05;2.75;;;;;;;;;;5021059;28;20200;-76
2021/10/23 05:59:30;;;;;;;4.57;3.15;;;;;;;;;;5017341;28;20216;-77
2021/10/23 06:02:01;;;;;;;5.50;3.37;;;;;;;;;;5012607;28;20632;-77
2021/10/23 06:04:27;;;;;;;4.22;3.00;;;;;;;;;;5018665;28;20438;-77
2021/10/23 06:06:53;;;;;;;4.10;2.90;;;;;;;;;;5014425;28;21571;-77
2021/10/23 06:09:19;;;;;;;4.60;3.50;;;;;;;;;;5017102;28;20440;-77
2021/10/23 06:11:46;;;;;;;3.97;3.10;;;;;;;;;;5021321;28;20186;-77
2021/10/23 06:14:12;;;;;;;6.40;4.50;;;;;;;;;;5022997;28;20261;-78
2021/10/23 06:16:38;;;;;;;3.40;2.75;;;;;;;;;;5021202;28;20214;-77
2021/10/23 06:19:04;;;;;;;3.38;2.83;;;;;;;;;;5017824;28;20264;-77
2021/10/23 06:21:30;;;;;;;7.25;3.30;;;;;;;;;;5012865;28;20194;-76
2021/10/23 06:23:56;;;;;;;4.85;3.00;;;;;;;;;;5007851;28;20183;-77
2021/10/23 06:26:22;;;;;;;2.90;2.57;;;;;;;;;;5013615;28;20186;-76
2021/10/23 06:28:48;;;;;;;5.10;2.78;;;;;;;;;;5012160;28;20441;-76
2021/10/23 06:31:14;;;;;;;6.95;3.03;;;;;;;;;;5015298;28;20182;-76
2021/10/23 06:33:40;;;;;;;5.45;3.00;;;;;;;;;;5012971;28;20254;-77
2021/10/23 06:36:06;;;;;;;4.20;3.30;;;;;;;;;;5018637;28;20644;-76
2021/10/23 06:38:32;;;;;;;3.85;3.05;;;;;;;;;;5019918;28;20405;-77
2021/10/23 06:40:58;;;;;;;3.30;3.00;;;;;;;;;;5018251;28;20257;-77
2021/10/23 06:43:25;;;;;;;6.63;2.80;;;;;;;;;;5019721;28;20198;-77
2021/10/23 06:45:51;;;;;;;5.35;2.78;;;;;;;;;;5022605;28;20241;-77
2021/10/23 06:48:17;;;;;;;4.68;2.90;;;;;;;;;;5019013;28;20178;-76
2021/10/23 06:50:43;;;;;;;3.67;3.10;;;;;;;;;;5018901;28;20274;-77
2021/10/23 06:53:09;;;;;;;4.63;3.40;;;;;;;;;;5018253;28;20269;-76
2021/10/23 06:55:35;;;;;;;6.95;3.10;;;;;;;;;;5022301;28;20441;-76
2021/10/23 06:58:01;;;;;;;3.78;3.40;;;;;;;;;;5022362;28;20194;-77
2021/10/23 07:00:27;;;;;;;4.05;3.00;;;;;;;;;;5022223;28;20201;-77
2021/10/23 07:02:53;;;;;;;5.22;3.15;;;;;;;;;;5018473;28;20179;-77
2021/10/23 07:05:20;;;;;;;5.55;3.90;;;;;;;;;;5019485;28;20632;-77
2021/10/23 07:07:46;;;;;;;4.80;3.10;;;;;;;;;;5017860;28;20187;-77
2021/10/23 07:10:13;;;;;;;5.60;3.17;;;;;;;;;;5025053;28;20190;-76
2021/10/23 07:12:39;;;;;;;6.35;3.70;;;;;;;;;;5021658;28;20259;-77
2021/10/23 07:15:06;;;;;;;6.20;3.88;;;;;;;;;;5026898;28;20203;-77
2021/10/23 07:17:32;;;;;;;5.90;2.83;;;;;;;;;;5019292;28;20257;-77
2021/10/23 07:19:58;;;;;;;5.65;3.05;;;;;;;;;;5019188;28;20245;-77
2021/10/23 07:22:24;;;;;;;6.22;3.92;;;;;;;;;;5012154;28;20175;-76
2021/10/23 07:24:50;;;;;;;4.38;3.55;;;;;;;;;;5021065;28;20186;-76
2021/10/23 07:27:17;;;;;;;6.47;3.70;;;;;;;;;;5017883;28;20198;-77
2021/10/23 07:29:43;;;;;;;6.50;3.70;;;;;;;;;;5028186;28;20182;-76
2021/10/23 07:32:09;;;;;;;4.63;3.38;;;;;;;;;;5018046;28;20183;-76
2021/10/23 07:34:35;;;;;;;4.30;3.00;;;;;;;;;;5022036;28;20194;-76
2021/10/23 07:37:01;;;;;;;5.22;3.40;;;;;;;;;;5021338;28;20469;-77
2021/10/23 07:39:28;;;;;;;5.40;3.17;;;;;;;;;;5019827;28;20210;-76
2021/10/23 07:41:55;;;;;;;4.55;3.20;;;;;;;;;;5017998;28;20182;-77
2021/10/23 07:44:21;;;;;;;4.95;3.60;;;;;;;;;;5017706;28;20249;-77
2021/10/23 07:46:47;;;;;;;5.70;3.40;;;;;;;;;;5017650;28;20227;-77
2021/10/23 07:49:13;;;;;;;3.55;2.92;;;;;;;;;;5019884;28;20183;-77
2021/10/23 07:51:39;;;;;;;2.92;2.60;;;;;;;;;;5020827;28;20191;-77
2021/10/23 07:54:09;;;;;;;6.45;4.00;;;;;;;;;;5007459;28;20720;-77
2021/10/23 07:56:38;;;;;;;4.53;3.05;;;;;;;;;;5018553;28;20695;-77
2021/10/23 07:59:04;;;;;;;3.95;3.17;;;;;;;;;;5017281;28;20261;-76
2021/10/23 08:01:30;;;;;;;5.30;3.00;;;;;;;;;;5011969;28;20175;-76
2021/10/23 08:03:56;;;;;;;5.38;3.38;;;;;;;;;;5021840;28;20929;-77
2021/10/23 08:06:22;;;;;;;5.25;3.25;;;;;;;;;;5018930;28;20174;-77
2021/10/23 08:08:49;;;;;;;7.20;3.20;;;;;;;;;;5018627;28;20205;-77
2021/10/23 08:11:15;;;;;;;4.30;2.88;;;;;;;;;;5017905;28;20202;-77
2021/10/23 08:13:41;;;;;;;4.60;2.90;;;;;;;;;;5017021;28;20182;-77
2021/10/23 08:16:07;;;;;;;4.68;3.15;;;;;;;;;;5018763;28;20206;-76
2021/10/23 08:18:33;;;;;;;2.42;2.15;;;;;;;;;;5016743;28;20209;-77
2021/10/23 08:21:00;;;;;;;3.85;2.75;;;;;;;;;;5016067;28;20213;-77
2021/10/23 08:23:26;;;;;;;4.90;2.20;;;;;;;;;;5022055;28;20167;-77
2021/10/23 08:25:53;;;;;;;5.97;2.60;;;;;;;;;;5015129;28;20678;-77
2021/10/23 08:28:19;;;;;;;3.35;2.30;;;;;;;;;;5016417;28;20438;-76
2021/10/23 08:30:45;;;;;;;3.60;2.50;;;;;;;;;;5020964;28;20286;-77
2021/10/23 08:33:11;;;;;;;5.75;2.50;;;;;;;;;;5026509;28;20547;-77
2021/10/23 08:35:37;;;;;;;4.63;2.58;;;;;;;;;;5014044;28;20183;-77
2021/10/23 08:38:03;;;;;;;3.58;2.35;;;;;;;;;;5012831;28;20543;-76
2021/10/23 08:40:30;;;;;;;3.05;2.40;;;;;;;;;;5016623;28;20275;-77
2021/10/23 08:42:56;;;;;;;9.63;4.80;;;;;;;;;;5021208;28;20531;-76
2021/10/23 08:45:23;;;;;;;3.03;2.65;;;;;;;;;;5017285;28;20206;-77
2021/10/23 08:47:49;;;;;;;5.10;1.92;;;;;;;;;;5020934;28;20602;-76
2021/10/23 08:50:20;;;;;;;3.75;2.15;;;;;;;;;;5018041;28;20175;-77
2021/10/23 08:52:46;;;;;;;6.03;2.45;;;;;;;;;;5017397;28;20215;-76
2021/10/23 08:55:12;;;;;;;4.93;3.13;;;;;;;;;;5019112;28;20183;-77
2021/10/23 08:57:40;;;;;;;3.47;2.30;;;;;;;;;;5018970;28;20202;-76
2021/10/23 09:00:06;;;;;;;5.00;2.80;;;;;;;;;;5016495;28;20683;-76
2021/10/23 09:02:32;;;;;;;5.18;2.42;;;;;;;;;;5022281;28;20170;-77
2021/10/23 09:04:58;;;;;;;5.00;2.80;;;;;;;;;;5020799;28;20221;-76
2021/10/23 09:07:25;;;;;;;3.67;1.80;;;;;;;;;;5012440;28;20430;-77
2021/10/23 09:09:53;;;;;;;10.18;2.45;;;;;;;;;;5022040;28;20209;-77
2021/10/23 09:12:29;;;;;;;3.97;2.95;;;;;;;;;;5020417;28;20182;-77
2021/10/23 09:15:12;;;;;;;5.60;2.67;;;;;;;;;;5029625;28;20209;-76
2021/10/23 09:17:42;;;;;;;3.05;2.40;;;;;;;;;;5026250;28;20178;-76
2021/10/23 09:20:12;;;;;;;6.93;2.33;;;;;;;;;;5020623;28;20208;-76
2021/10/23 09:22:42;;;;;;;2.67;2.20;;;;;;;;;;5020602;28;20190;-76
2021/10/23 09:25:08;;;;;;;5.10;2.50;;;;;;;;;;5021486;28;20183;-76
2021/10/23 09:27:34;;;;;;;2.60;2.30;;;;;;;;;;5022543;28;20190;-76
2021/10/23 09:30:01;;;;;;;4.00;2.38;;;;;;;;;;5020255;28;20249;-76
2021/10/23 09:32:33;;;;;;;5.43;3.08;;;;;;;;;;5024602;28;20183;-77
2021/10/23 09:35:13;;;;;;;3.13;1.83;;;;;;;;;;5020840;28;20530;-76
2021/10/23 09:37:41;;;;;;;4.80;2.60;;;;;;;;;;5019601;28;20699;-77
2021/10/23 09:40:07;;;;;;;3.45;1.90;;;;;;;;;;5017986;28;20254;-76
2021/10/23 09:42:33;;;;;;;3.10;2.08;;;;;;;;;;5022007;28;20189;-77
2021/10/23 09:45:03;;;;;;;6.20;2.05;;;;;;;;;;5028809;28;20230;-76
2021/10/23 09:47:43;;;;;;;6.43;2.38;;;;;;;;;;5034812;28;20242;-76
2021/10/23 09:50:12;;;;;;;5.88;2.58;;;;;;;;;;5020634;28;20183;-76
2021/10/23 09:53:01;;;;;;;5.82;1.80;;;;;;;;;;5030249;28;20576;-76
2021/10/23 09:55:34;;;;;;;7.85;2.22;;;;;;;;;;5019313;28;20199;-76
2021/10/23 09:58:19;;;;;;;7.57;2.05;;;;;;;;;;5013861;28;20528;-76
2021/10/23 10:00:47;;;;;;;6.57;2.85;;;;;;;;;;5024308;28;20213;-76
2021/10/23 10:03:13;;;;;;;3.47;2.33;;;;;;;;;;5025207;28;20170;-77
2021/10/23 10:05:40;;;;;;;3.20;2.33;;;;;;;;;;5016498;28;20179;-76
2021/10/23 10:08:09;;;;;;;3.03;2.25;;;;;;;;;;5019656;28;20197;-76
2021/10/23 10:10:39;;;;;;;9.60;2.60;;;;;;;;;;5019053;28;20256;-77
2021/10/23 10:13:06;;;;;;;4.95;2.50;;;;;;;;;;5023270;28;20183;-76
2021/10/23 10:15:33;;;;;;;4.65;2.10;;;;;;;;;;5023303;28;20190;-76
2021/10/23 10:18:03;;;;;;;3.88;2.78;;;;;;;;;;5019531;28;20265;-77
2021/10/23 10:20:30;;;;;;;3.20;2.22;;;;;;;;;;5024366;28;20206;-76
2021/10/23 10:22:57;;;;;;;3.03;2.20;;;;;;;;;;5013011;28;20170;-76
2021/10/23 10:25:24;;;;;;;4.40;2.55;;;;;;;;;;5018129;28;20670;-76
2021/10/23 10:27:52;;;;;;;4.15;2.45;;;;;;;;;;5021589;28;20182;-77
2021/10/23 10:30:26;;;;;;;4.00;2.30;;;;;;;;;;5017981;28;20186;-77
2021/10/23 10:32:53;;;;;;;4.97;2.45;;;;;;;;;;5016578;28;20186;-77
2021/10/23 10:44:15;;;;;;;4.00;2.35;;;;;;;;;;5013981;28;20188;-77
2021/10/23 10:47:00;;;;;;;12.90;5.03;;;;;;;;;;5018397;28;20223;-77
2021/10/23 10:49:50;;;;;;;2.50;2.30;;;;;;;;;;5019288;28;20247;-76
2021/10/23 10:52:34;;;;;;;6.47;2.55;;;;;;;;;;5012708;28;20210;-76
2021/10/23 10:55:14;;;;;;;1.75;1.65;;;;;;;;;;5012577;28;20213;-77
2021/10/23 10:57:59;;;;;;;4.35;2.05;;;;;;;;;;5022104;28;20193;-76
2021/10/23 11:00:44;;;;;;;3.38;1.70;;;;;;;;;;5019638;28;20202;-77
2021/10/23 11:03:29;;;;;;;5.00;1.60;;;;;;;;;;5018730;28;20217;-76
2021/10/23 11:05:55;;;;;;;3.25;1.75;;;;;;;;;;5021214;28;20185;-77
2021/10/23 11:08:21;;;;;;;3.80;2.03;;;;;;;;;;5034362;28;20162;-76
2021/10/23 11:10:56;;;;;;;5.40;1.60;;;;;;;;;;5013709;28;20450;-76
2021/10/23 11:13:25;;;;;;;4.05;1.40;;;;;;;;;;5018565;28;20183;-76
2021/10/23 11:15:51;;;;;;;3.90;1.98;;;;;;;;;;5021479;28;20194;-76
2021/10/23 11:18:18;;;;;;;5.50;1.80;;;;;;;;;;5018591;28;20189;-76
2021/10/23 11:20:45;;;;;;;2.45;1.90;;;;;;;;;;5019044;28;20460;-76
2021/10/23 11:23:21;;;;;;;9.00;2.45;;;;;;;;;;5018389;28;20174;-76
2021/10/23 11:25:48;;;;;;;3.95;1.98;;;;;;;;;;5016460;28;20190;-76
2021/10/23 11:28:14;;;;;;;3.83;2.25;;;;;;;;;;5019414;28;20182;-76
2021/10/23 11:30:43;;;;;;;2.73;1.77;;;;;;;;;;5021833;28;20202;-76
2021/10/23 11:33:13;;;;;;;5.90;2.40;;;;;;;;;;5018077;28;20441;-76
2021/10/23 11:35:38;;;;;;;5.38;2.17;;;;;;;;;;5018707;28;20187;-76
2021/10/23 11:38:06;;;;;;;7.23;3.03;;;;;;;;;;5017143;28;20190;-76
2021/10/23 11:40:33;;;;;;;9.20;2.40;;;;;;;;;;5015339;28;20466;-76
2021/10/23 11:42:59;;;;;;;2.47;1.60;;;;;;;;;;5021455;28;20192;-76
2021/10/23 11:45:26;;;;;;;2.42;1.70;;;;;;;;;;5017437;28;20582;-77
2021/10/23 11:47:52;;;;;;;6.47;2.42;;;;;;;;;;5018190;28;20179;-76
2021/10/23 11:50:23;;;;;;;4.82;1.85;;;;;;;;;;5033060;28;20175;-76
2021/10/23 11:52:53;;;;;;;1.60;1.50;;;;;;;;;;5017564;28;20241;-76
2021/10/23 11:56:01;;;;;;;4.90;1.77;;;;;;;;;;5021947;28;20215;-76
2021/10/23 11:58:28;;;;;;;2.17;1.40;;;;;;;;;;5013671;28;20759;-76
2021/10/23 12:01:01;;;;;;;5.18;2.25;;;;;;;;;;5009777;28;20317;-76
2021/10/23 12:03:29;;;;;;;2.25;1.70;;;;;;;;;;5020438;28;20216;-76
2021/10/23 12:05:55;;;;;;;4.63;1.50;;;;;;;;;;5020543;28;20179;-76
2021/10/23 12:08:30;;;;;;;4.10;1.50;;;;;;;;;;5021153;28;20183;-76
2021/10/23 12:10:58;;;;;;;6.38;2.28;;;;;;;;;;5020661;28;20194;-76
2021/10/23 12:13:24;;;;;;;2.05;1.45;;;;;;;;;;5019998;28;20183;-76
2021/10/23 12:16:10;;;;;;;6.93;2.30;;;;;;;;;;5018512;28;20710;-76
2021/10/23 12:18:39;;;;;;;3.53;2.03;;;;;;;;;;5006848;28;20340;-76
2021/10/23 12:21:11;;;;;;;4.22;1.70;;;;;;;;;;5019937;28;20210;-76
2021/10/23 12:23:40;;;;;;;3.25;1.92;;;;;;;;;;5021784;28;20194;-76
2021/10/23 12:26:07;;;;;;;4.43;1.95;;;;;;;;;;5020532;28;20220;-75
2021/10/23 12:28:53;;;;;;;5.75;2.45;;;;;;;;;;5014696;28;20193;-76
2021/10/23 12:31:19;;;;;;;3.97;2.60;;;;;;;;;;5015779;28;20193;-76
2021/10/23 12:34:05;;;;;;;6.13;2.33;;;;;;;;;;5018521;28;20195;-76
2021/10/23 12:36:32;;;;;;;5.03;2.22;;;;;;;;;;5017746;28;20245;-76
2021/10/23 12:39:16;;;;;;;2.67;2.47;;;;;;;;;;5014960;28;20185;-76
2021/10/23 12:41:42;;;;;;;4.22;2.30;;;;;;;;;;5023953;28;20171;-76
2021/10/23 12:44:09;;;;;;;3.47;2.60;;;;;;;;;;5017080;28;20179;-76
2021/10/23 12:46:35;;;;;;;4.00;1.95;;;;;;;;;;5029606;28;20215;-77
2021/10/23 12:49:01;;;;;;;5.10;2.00;;;;;;;;;;5015330;28;20197;-76
2021/10/23 12:51:31;;;;;;;5.03;1.87;;;;;;;;;;5017851;28;20727;-76
2021/10/23 12:53:58;;;;;;;7.18;2.30;;;;;;;;;;5020558;28;20416;-76
2021/10/23 12:56:24;;;;;;;4.15;2.10;;;;;;;;;;5037592;28;20180;-76
2021/10/23 12:58:50;;;;;;;5.00;2.60;;;;;;;;;;5020408;28;20472;-76
2021/10/23 13:01:16;;;;;;;3.40;2.90;;;;;;;;;;5024665;28;20438;-76
2021/10/23 13:03:42;;;;;;;3.78;2.10;;;;;;;;;;5026293;28;20463;-76
2021/10/23 13:06:08;;;;;;;5.15;2.13;;;;;;;;;;5021902;28;20191;-76
2021/10/23 13:08:34;;;;;;;3.20;2.13;;;;;;;;;;5021878;28;20179;-76
2021/10/23 13:11:00;;;;;;;5.78;2.33;;;;;;;;;;5019623;28;20190;-77
2021/10/23 13:13:27;;;;;;;2.97;2.03;;;;;;;;;;5021444;28;20183;-77
2021/10/23 13:15:53;;;;;;;6.82;2.05;;;;;;;;;;5024715;28;20468;-77
2021/10/23 13:18:19;;;;;;;3.05;1.45;;;;;;;;;;5020999;28;20465;-76
2021/10/23 13:20:45;;;;;;;6.13;2.50;;;;;;;;;;5021968;28;20253;-77
2021/10/23 13:23:12;;;;;;;3.25;1.95;;;;;;;;;;5020881;28;20179;-76
2021/10/23 13:25:38;;;;;;;2.38;1.58;;;;;;;;;;5020874;28;20186;-77
2021/10/23 13:28:04;;;;;;;1.80;1.30;;;;;;;;;;5024005;28;20192;-76
2021/10/23 13:30:32;;;;;;;3.72;2.35;;;;;;;;;;5020474;28;20603;-76
2021/10/23 13:32:58;;;;;;;8.60;2.10;;;;;;;;;;5029558;28;20250;-77
2021/10/23 13:35:24;;;;;;;2.90;1.50;;;;;;;;;;5022105;28;20201;-76
2021/10/23 13:37:50;;;;;;;7.50;2.07;;;;;;;;;;5024284;28;20457;-76
2021/10/23 13:40:16;;;;;;;4.67;1.93;;;;;;;;;;5024080;28;20470;-76
2021/10/23 13:42:42;;;;;;;1.80;1.40;;;;;;;;;;5025339;28;20441;-76
2021/10/23 13:45:08;;;;;;;4.10;2.42;;;;;;;;;;5020227;28;20463;-76
2021/10/23 13:47:34;;;;;;;3.35;1.98;;;;;;;;;;5021497;28;20189;-76
2021/10/23 13:50:00;;;;;;;2.75;1.70;;;;;;;;;;5019477;28;20208;-76
2021/10/23 13:52:26;;;;;;;4.70;1.80;;;;;;;;;;5020275;28;20406;-76
2021/10/23 13:54:52;;;;;;;2.10;1.90;;;;;;;;;;5024268;28;20445;-77
2021/10/23 13:57:18;;;;;;;2.50;1.67;;;;;;;;;;5019782;28;20462;-77
2021/10/23 13:59:44;;;;;;;4.28;2.10;;;;;;;;;;5016756;28;20472;-77
2021/10/23 14:02:10;;;;;;;3.27;2.83;;;;;;;;;;5019786;28;20193;-77
2021/10/23 14:04:36;;;;;;;4.25;2.55;;;;;;;;;;5020137;28;20524;-77
2021/10/23 14:07:03;;;;;;;5.05;3.90;;;;;;;;;;5022837;28;20638;-76
2021/10/23 14:09:30;;;;;;;6.72;3.88;;;;;;;;;;5023893;28;20187;-76
2021/10/23 14:11:55;;;;;;;6.55;3.45;;;;;;;;;;5028985;28;20573;-77
2021/10/23 14:14:22;;;;;;;5.90;2.67;;;;;;;;;;5035150;28;20184;-77
2021/10/23 14:16:48;;;;;;;3.67;3.15;;;;;;;;;;5023473;28;20810;-77
2021/10/23 14:19:14;;;;;;;3.88;2.75;;;;;;;;;;5021972;28;20207;-76
2021/10/23 14:21:40;;;;;;;5.53;3.63;;;;;;;;;;5022955;28;20198;-77
2021/10/23 14:24:06;;;;;;;6.10;2.28;;;;;;;;;;5021515;28;20181;-77
2021/10/23 14:26:34;;;;;;;7.38;3.25;;;;;;;;;;5021489;28;20171;-77
2021/10/23 14:29:00;;;;;;;7.70;3.10;;;;;;;;;;5032056;28;20183;-77
2021/10/23 14:31:27;;;;;;;5.88;2.63;;;;;;;;;;5022986;28;20198;-77
2021/10/23 14:33:53;;;;;;;5.45;3.03;;;;;;;;;;5024100;28;20191;-77
2021/10/23 14:36:20;;;;;;;3.28;2.38;;;;;;;;;;5020701;28;20175;-77
2021/10/23 14:38:46;;;;;;;6.55;3.25;;;;;;;;;;5020498;28;20167;-76
2021/10/23 14:41:12;;;;;;;3.55;3.00;;;;;;;;;;5018182;28;20237;-76
2021/10/23 14:43:39;;;;;;;4.97;2.33;;;;;;;;;;5018629;28;20214;-76
2021/10/23 14:46:05;;;;;;;9.68;3.10;;;;;;;;;;5020904;28;20216;-76
2021/10/23 14:48:32;;;;;;;4.68;2.25;;;;;;;;;;5021670;28;20207;-76
2021/10/23 14:50:58;;;;;;;3.78;2.83;;;;;;;;;;5028515;28;20588;-76
2021/10/23 14:53:24;;;;;;;3.40;3.10;;;;;;;;;;5020115;28;20542;-77